Time;durP1;ratioP1;P1;durP2;ratioP2;P2;SDS_P1;SDS_P2;PMS_P1;PMS_P2;Temp;Humidity;BMP_temperature;BMP_pressure;BME280_temperature;BME280_humidity;BME280_pressure;Samples;Min_cycle;Max_cycle;Signal;HPM_P1;HPM_P2
2022/04/27 00:01:12;;;;;;;9.95;3.67;;;;;;;46.42;1.95;100522.22;5100753;28;20083;-62
2022/04/27 00:03:39;;;;;;;8.07;3.42;;;;;;;45.97;2.59;100534.34;5105854;27;20012;-60
2022/04/27 00:06:06;;;;;;;15.77;3.83;;;;;;;46.96;1.86;100523.59;5080421;28;20076;-62
2022/04/27 00:08:32;;;;;;;7.80;3.05;;;;;;;49.56;1.85;100516.75;5078622;28;20074;-61
2022/04/27 00:10:59;;;;;;;7.65;3.15;;;;;;;53.27;0.49;100509.91;5090295;28;20036;-62
2022/04/27 00:13:26;;;;;;;9.50;3.30;;;;;;;49.73;0.41;100513.66;5089596;28;20031;-63
2022/04/27 00:15:53;;;;;;;13.63;3.33;;;;;;;50.99;0.55;100504.97;5085466;28;20067;-63
2022/04/27 00:18:19;;;;;;;13.63;3.40;;;;;;;52.31;0.15;100496.25;5093068;28;20123;-61
2022/04/27 00:20:46;;;;;;;13.85;3.50;;;;;;;54.56;0.10;100511.88;5088749;28;20027;-61
2022/04/27 00:23:13;;;;;;;13.85;3.63;;;;;;;56.65;0.18;100510.97;5091416;28;20498;-64
2022/04/27 00:25:39;;;;;;;9.75;3.08;;;;;;;58.06;0.00;100512.06;5079626;28;20055;-62
2022/04/27 00:28:06;;;;;;;15.45;3.58;;;;;;;56.05;0.00;100507.03;5084377;28;20032;-63
2022/04/27 00:30:33;;;;;;;10.02;3.10;;;;;;;55.51;0.00;100510.72;5090003;28;20478;-60
2022/04/27 00:33:00;;;;;;;9.93;3.53;;;;;;;53.53;0.00;100505.28;5077822;28;20180;-61
2022/04/27 00:35:27;;;;;;;14.35;3.13;;;;;;;53.81;0.00;100508.13;5080602;28;20458;-61
2022/04/27 00:37:54;;;;;;;13.88;3.10;;;;;;;54.93;0.00;100503.75;5077794;28;20116;-60
2022/04/27 00:40:21;;;;;;;12.70;3.65;;;;;;;50.85;0.46;100501.28;5079786;28;20032;-64
2022/04/27 00:42:47;;;;;;;9.52;3.58;;;;;;;47.55;1.41;100508.09;5095579;28;20486;-62
2022/04/27 00:45:15;;;;;;;12.93;3.55;;;;;;;49.98;1.17;100485.47;5085158;28;20446;-61
2022/04/27 00:47:42;;;;;;;11.30;3.78;;;;;;;53.03;0.06;100481.28;5087299;28;20044;-60
2022/04/27 00:50:10;;;;;;;13.20;3.60;;;;;;;52.84;0.70;100493.13;5083021;28;20676;-60
2022/04/27 00:52:38;;;;;;;12.07;3.45;;;;;;;53.27;0.00;100477.97;5088210;28;20203;-61
2022/04/27 00:55:05;;;;;;;13.93;3.50;;;;;;;52.11;0.26;100473.78;5086706;28;20036;-60
2022/04/27 00:57:34;;;;;;;11.05;3.47;;;;;;;50.39;0.97;100491.75;5086952;28;20522;-61
2022/04/27 01:00:01;;;;;;;14.57;3.35;;;;;;;49.15;1.99;100485.91;5085068;28;20548;-61
2022/04/27 01:02:28;;;;;;;15.70;3.80;;;;;;;47.74;1.56;100479.50;5087142;28;20036;-60
2022/04/27 01:04:55;;;;;;;12.55;3.55;;;;;;;45.75;2.38;100483.31;5084160;28;20048;-60
2022/04/27 01:07:23;;;;;;;11.05;3.45;;;;;;;43.77;2.51;100477.59;5090745;28;20042;-60
2022/04/27 01:09:50;;;;;;;14.10;3.42;;;;;;;42.10;3.12;100487.81;5086275;28;20040;-60
2022/04/27 01:12:18;;;;;;;10.82;3.03;;;;;;;42.02;3.20;100488.66;5085862;28;20388;-60
2022/04/27 01:14:57;;;;;;;9.77;3.30;;;;;;;41.53;3.80;100485.00;5088357;28;20028;-60
2022/04/27 01:17:24;;;;;;;18.38;3.60;;;;;;;40.72;4.17;100486.88;5087995;28;20035;-59
2022/04/27 01:19:53;;;;;;;16.30;3.53;;;;;;;40.61;3.78;100487.41;5087781;28;20028;-61
2022/04/27 01:22:20;;;;;;;11.38;3.42;;;;;;;39.96;4.11;100482.19;5086303;28;20050;-59
2022/04/27 01:24:49;;;;;;;13.32;3.45;;;;;;;39.79;5.21;100485.31;5086664;28;20039;-60
2022/04/27 01:27:16;;;;;;;13.70;3.70;;;;;;;38.66;4.00;100494.34;5065676;28;20040;-62
2022/04/27 01:29:44;;;;;;;13.23;3.85;;;;;;;38.59;4.20;100499.44;5085403;28;20097;-60
2022/04/27 01:32:11;;;;;;;14.50;3.15;;;;;;;37.81;4.49;100494.53;5086303;28;20032;-60
2022/04/27 01:34:38;;;;;;;22.75;4.05;;;;;;;37.33;4.76;100493.66;5083473;28;20036;-60
2022/04/27 01:39:50;;;;;;;10.45;3.15;;;;;;;35.15;5.37;100500.81;5085612;28;20043;-61
2022/04/27 01:42:18;;;;;;;17.30;3.65;;;;;;;34.66;5.68;100511.97;5085253;28;20555;-61
2022/04/27 01:44:44;;;;;;;13.18;3.58;;;;;;;34.24;5.75;100511.53;5087782;28;20052;-61
2022/04/27 01:47:12;;;;;;;16.52;3.20;;;;;;;34.13;5.56;100512.97;5088641;28;20027;-61
2022/04/27 01:49:38;;;;;;;23.00;4.50;;;;;;;34.16;5.68;100514.94;5084762;28;20019;-61
2022/04/27 01:54:50;;;;;;;25.70;4.10;;;;;;;33.99;6.17;100516.84;5087242;28;20429;-60
2022/04/27 01:57:17;;;;;;;16.23;4.07;;;;;;;33.74;5.77;100520.06;5086140;28;20034;-60
2022/04/27 01:59:45;;;;;;;16.23;4.13;;;;;;;33.34;6.11;100513.47;5085656;28;20041;-61
2022/04/27 02:02:12;;;;;;;13.40;3.83;;;;;;;33.12;6.30;100529.06;5081160;28;20036;-61
2022/04/27 02:04:43;;;;;;;10.98;3.30;;;;;;;32.87;6.27;100518.94;5075063;28;20041;-60
2022/04/27 02:07:13;;;;;;;13.70;3.20;;;;;;;32.68;6.31;100525.97;5082533;28;20055;-60
2022/04/27 02:09:40;;;;;;;18.38;4.25;;;;;;;32.44;6.73;100536.28;5082356;28;20082;-59
2022/04/27 02:12:07;;;;;;;33.03;4.78;;;;;;;32.21;6.73;100538.13;5097411;28;20047;-60
2022/04/27 02:14:40;;;;;;;11.07;4.32;;;;;;;31.88;7.16;100534.81;5083256;28;20028;-60
2022/04/27 02:17:07;;;;;;;16.00;4.05;;;;;;;31.70;7.19;100553.81;5082753;28;20105;-60
2022/04/27 02:19:35;;;;;;;16.77;3.33;;;;;;;31.47;7.37;100552.38;5087025;28;20031;-61
2022/04/27 02:22:02;;;;;;;17.33;3.33;;;;;;;31.60;7.77;100555.50;5081417;27;20803;-59
2022/04/27 02:24:30;;;;;;;21.42;3.88;;;;;;;31.19;8.33;100572.19;5090185;27;20081;-58
2022/04/27 02:26:57;;;;;;;14.32;3.40;;;;;;;30.83;9.86;100574.31;5098692;27;20036;-59
2022/04/27 02:29:29;;;;;;;15.95;3.20;;;;;;;30.56;10.77;100576.78;5073584;28;20023;-59
2022/04/27 02:32:04;;;;;;;16.55;3.83;;;;;;;30.67;9.31;100575.56;5084515;28;20123;-59
2022/04/27 02:34:30;;;;;;;12.82;3.50;;;;;;;30.44;9.36;100580.03;5089905;28;20060;-58
2022/04/27 02:36:58;;;;;;;10.90;3.10;;;;;;;30.26;10.80;100580.84;5085671;28;20023;-61
2022/04/27 02:39:25;;;;;;;8.20;2.70;;;;;;;29.96;10.38;100595.25;5084146;27;20043;-58
2022/04/27 02:41:52;;;;;;;12.40;3.30;;;;;;;30.25;7.87;100586.84;5084845;28;20496;-60
2022/04/27 02:44:19;;;;;;;9.02;3.00;;;;;;;30.15;8.30;100573.63;5082346;27;20509;-59
2022/04/27 02:46:47;;;;;;;9.35;3.42;;;;;;;30.12;8.02;100583.66;5087758;27;20020;-59
2022/04/27 02:52:00;;;;;;;19.95;3.53;;;;;;;29.34;11.98;100583.53;5083822;27;20027;-59
2022/04/27 02:55:06;;;;;;;12.70;3.38;;;;;;;29.04;11.03;100595.81;5083582;27;20461;-58
2022/04/27 02:57:33;;;;;;;16.35;3.70;;;;;;;29.14;10.02;100594.25;5093280;27;20040;-60
2022/04/27 03:00:03;;;;;;;15.15;3.13;;;;;;;29.03;10.47;100599.81;5085195;28;20390;-59
2022/04/27 03:02:30;;;;;;;11.70;3.25;;;;;;;28.75;11.33;100592.06;5088976;27;20031;-61
2022/04/27 03:04:57;;;;;;;9.20;3.72;;;;;;;28.54;11.92;100601.09;5080901;27;20027;-59
2022/04/27 03:07:24;;;;;;;13.32;3.15;;;;;;;28.34;11.27;100598.97;5092910;28;20409;-60
2022/04/27 03:09:51;;;;;;;14.57;3.72;;;;;;;28.22;12.41;100600.06;5103981;27;20036;-59
2022/04/27 03:12:19;;;;;;;9.60;3.53;;;;;;;28.00;11.25;100604.66;5086904;27;20439;-58
2022/04/27 03:14:47;;;;;;;16.95;4.13;;;;;;;27.93;13.16;100599.81;5074422;27;20046;-59
2022/04/27 03:17:14;;;;;;;17.70;4.40;;;;;;;28.23;12.01;100591.31;5092210;27;20024;-59
2022/04/27 03:19:41;;;;;;;23.75;4.70;;;;;;;28.05;12.92;100606.31;5093003;27;20092;-59
2022/04/27 03:22:12;;;;;;;15.73;4.78;;;;;;;28.58;12.66;100599.16;5094597;27;20080;-60
2022/04/27 03:24:39;;;;;;;19.45;4.85;;;;;;;28.65;13.23;100609.56;5104953;27;20028;-58
2022/04/27 03:27:16;;;;;;;19.33;6.03;;;;;;;28.35;14.33;100615.34;5074567;28;20073;-59
2022/04/27 03:29:44;;;;;;;17.70;5.07;;;;;;;27.90;14.72;100617.38;5095103;28;20382;-58
2022/04/27 03:32:13;;;;;;;19.48;5.13;;;;;;;27.56;14.09;100626.97;5091789;28;20374;-60
2022/04/27 03:34:44;;;;;;;17.88;4.50;;;;;;;27.35;15.76;100631.13;5093224;28;20389;-58
2022/04/27 03:37:12;;;;;;;17.42;5.22;;;;;;;27.14;15.13;100635.66;5092085;28;20036;-60
2022/04/27 03:39:39;;;;;;;26.73;5.80;;;;;;;26.93;16.74;100627.75;5089754;28;20015;-61
2022/04/27 03:42:08;;;;;;;17.98;5.60;;;;;;;26.79;16.10;100629.19;5089495;28;20038;-60
2022/04/27 03:44:35;;;;;;;25.48;6.03;;;;;;;26.66;16.87;100633.38;5084125;28;20020;-60
2022/04/27 03:47:04;;;;;;;24.48;5.90;;;;;;;26.55;18.23;100632.38;5096476;28;20051;-60
2022/04/27 03:49:33;;;;;;;22.65;5.32;;;;;;;26.41;17.42;100632.19;5103837;27;20115;-58
2022/04/27 03:52:01;;;;;;;20.38;5.30;;;;;;;26.29;16.89;100635.94;5090829;28;20481;-58
2022/04/27 03:54:29;;;;;;;19.25;6.35;;;;;;;26.24;17.42;100638.25;5073829;28;20546;-58
2022/04/27 03:56:56;;;;;;;19.70;5.47;;;;;;;26.23;17.44;100642.22;5090281;27;20031;-59
2022/04/27 03:59:22;;;;;;;22.95;6.45;;;;;;;26.45;18.12;100644.19;5089359;28;20115;-59
2022/04/27 04:01:49;;;;;;;20.23;5.38;;;;;;;26.41;17.59;100643.34;5094439;28;20080;-60
2022/04/27 04:04:17;;;;;;;24.85;6.32;;;;;;;26.17;17.99;100641.72;5083769;28;20040;-59
2022/04/27 04:06:44;;;;;;;26.02;5.97;;;;;;;25.98;19.54;100653.72;5089876;28;20048;-60
2022/04/27 04:09:12;;;;;;;25.75;5.90;;;;;;;25.87;18.59;100655.53;5099796;27;20035;-59
2022/04/27 04:11:39;;;;;;;25.73;6.30;;;;;;;25.62;19.17;100657.78;5085491;28;20060;-62
2022/04/27 04:14:18;;;;;;;21.98;6.03;;;;;;;25.40;19.42;100656.56;5114866;27;20081;-59
2022/04/27 04:16:51;;;;;;;18.80;5.78;;;;;;;25.28;20.21;100662.28;5099273;28;20042;-60
2022/04/27 04:19:53;;;;;;;24.67;6.30;;;;;;;25.43;18.82;100658.63;5079752;28;20040;-60
2022/04/27 04:22:40;;;;;;;45.67;7.00;;;;;;;25.20;19.94;100660.53;5069840;28;20421;-59
2022/04/27 04:28:31;;;;;;;27.52;6.47;;;;;;;24.89;21.57;100659.44;5108968;28;20040;-58
2022/04/27 04:31:01;;;;;;;24.85;6.47;;;;;;;24.83;20.26;100654.53;5098752;27;20500;-60
2022/04/27 04:33:41;;;;;;;22.38;5.63;;;;;;;25.41;19.20;100669.31;5091150;28;20027;-61
2022/04/27 04:36:09;;;;;;;22.60;6.68;;;;;;;25.02;19.03;100679.59;5086982;27;20091;-59
2022/04/27 04:38:39;;;;;;;32.42;7.35;;;;;;;24.70;19.12;100684.41;5092121;28;20058;-61
2022/04/27 04:41:08;;;;;;;31.42;7.18;;;;;;;24.63;19.20;100687.81;5089889;28;20103;-60
2022/04/27 04:43:39;;;;;;;30.45;7.28;;;;;;;24.59;18.99;100683.31;5090839;28;20027;-60
2022/04/27 04:46:06;;;;;;;32.33;7.00;;;;;;;24.72;19.09;100687.63;5089049;28;20043;-59
2022/04/27 04:48:46;;;;;;;32.05;8.00;;;;;;;24.93;18.63;100679.75;5096280;28;20092;-60
2022/04/27 04:51:31;;;;;;;21.88;6.97;;;;;;;25.14;18.46;100679.50;5107096;28;20066;-60
2022/04/27 04:54:16;;;;;;;;;;;;;;;25.15;18.28;100699.75;5111028;28;20100;-60
2022/04/27 04:56:55;;;;;;;34.88;7.93;;;;;;;25.27;18.56;100705.97;5108205;27;19916;-61
2022/04/27 04:59:27;;;;;;;30.83;8.00;;;;;;;24.99;20.65;100708.94;5061482;28;20043;-59
2022/04/27 05:02:07;;;;;;;27.80;8.10;;;;;;;24.66;19.17;100705.75;5092318;27;20031;-59
2022/04/27 05:04:52;;;;;;;32.83;9.70;;;;;;;24.35;19.48;100717.66;5090866;28;20036;-59
2022/04/27 05:07:42;;;;;;;30.50;8.38;;;;;;;24.31;19.26;100717.59;5073480;28;20031;-58
2022/04/27 05:10:17;;;;;;;33.40;8.23;;;;;;;24.59;18.80;100716.66;5113074;28;20393;-58
2022/04/27 05:12:52;;;;;;;39.50;10.05;;;;;;;24.89;18.13;100709.47;5095410;28;20036;-59
2022/04/27 05:15:25;;;;;;;46.05;9.88;;;;;;;24.58;18.42;100715.06;5112175;28;20165;-60
2022/04/27 05:18:02;;;;;;;43.90;10.55;;;;;;;24.39;18.53;100707.44;5113635;28;20516;-60
2022/04/27 05:20:46;;;;;;;39.85;11.57;;;;;;;24.41;17.99;100717.03;5095797;28;20435;-59
2022/04/27 05:23:52;;;;;;;43.00;11.40;;;;;;;24.59;17.44;100713.91;5094967;28;20438;-59
2022/04/27 05:26:39;;;;;;;52.97;11.95;;;;;;;24.45;18.58;100717.16;5099111;28;20043;-60
2022/04/27 05:32:43;;;;;;;60.42;11.68;;;;;;;24.75;17.12;100703.56;5095122;28;20035;-58
2022/04/27 05:35:28;;;;;;;62.60;11.82;;;;;;;24.83;16.96;100699.81;5113826;28;20043;-59
2022/04/27 05:38:15;;;;;;;45.10;13.35;;;;;;;24.73;17.12;100694.78;5095409;28;20039;-61
2022/04/27 05:40:54;;;;;;;48.90;11.93;;;;;;;24.44;17.36;100695.28;5113241;28;20114;-60
2022/04/27 05:43:42;;;;;;;47.40;10.75;;;;;;;24.53;17.20;100710.59;5087432;28;20028;-60
2022/04/27 05:46:26;;;;;;;37.50;10.27;;;;;;;24.63;16.87;100704.50;5113549;28;20047;-59
2022/04/27 05:49:13;;;;;;;47.53;10.82;;;;;;;24.31;17.52;100694.56;5097439;28;20067;-60
2022/04/27 05:51:52;;;;;;;50.35;10.70;;;;;;;24.08;17.03;100700.72;5112683;28;20124;-59
2022/04/27 05:54:54;;;;;;;45.40;17.83;;;;;;;24.15;16.65;100713.16;5024329;28;20042;-60
2022/04/27 05:57:39;;;;;;;37.85;11.77;;;;;;;24.28;15.48;100712.72;5105190;28;20638;-59
2022/04/27 06:00:46;;;;;;;32.72;10.07;;;;;;;24.29;14.73;100711.59;5103001;28;20036;-60
2022/04/27 06:03:29;;;;;;;34.37;10.73;;;;;;;24.55;13.68;100699.91;5089354;28;20522;-59
2022/04/27 06:06:00;;;;;;;33.92;10.27;;;;;;;24.45;13.58;100705.22;5091763;28;20075;-59
2022/04/27 06:08:28;;;;;;;25.90;9.20;;;;;;;24.38;13.69;100695.53;5077959;28;20450;-59
2022/04/27 06:11:00;;;;;;;25.65;8.70;;;;;;;24.44;13.36;100703.63;5091893;28;20096;-60
2022/04/27 06:13:30;;;;;;;28.65;8.32;;;;;;;24.36;13.23;100702.63;5071517;28;20042;-60
2022/04/27 06:16:29;;;;;;;30.67;8.93;;;;;;;24.22;13.44;100708.56;5082543;28;20040;-60
2022/04/27 06:19:07;;;;;;;19.48;7.78;;;;;;;23.89;14.36;100705.34;5090549;28;20039;-59
2022/04/27 06:21:35;;;;;;;22.10;8.65;;;;;;;23.72;14.39;100704.47;5087714;28;20039;-60
2022/04/27 06:24:05;;;;;;;28.25;8.23;;;;;;;23.69;14.11;100702.38;5089205;28;20036;-60
2022/04/27 06:26:33;;;;;;;19.90;6.97;;;;;;;23.99;13.76;100699.25;5087014;28;20050;-60
2022/04/27 06:29:01;;;;;;;11.23;6.43;;;;;;;23.81;13.91;100707.91;5087248;28;20077;-60
2022/04/27 06:31:30;;;;;;;15.15;5.95;;;;;;;24.02;13.45;100704.06;5083361;28;20038;-59
2022/04/27 06:33:59;;;;;;;15.02;5.25;;;;;;;23.91;13.52;100691.91;5090380;28;20453;-58
2022/04/27 06:36:26;;;;;;;13.55;4.93;;;;;;;23.94;13.32;100703.09;5086416;28;20031;-59
2022/04/27 06:38:56;;;;;;;9.70;5.15;;;;;;;24.06;13.24;100699.44;5085514;28;20036;-59
2022/04/27 06:41:31;;;;;;;10.82;5.13;;;;;;;23.98;13.25;100708.75;5101360;28;20036;-60
2022/04/27 06:44:17;;;;;;;11.02;5.30;;;;;;;23.98;13.05;100706.75;5099808;28;20125;-59
2022/04/27 06:47:03;;;;;;;13.50;5.75;;;;;;;23.97;12.70;100704.34;5101619;28;20549;-59
2022/04/27 06:49:48;;;;;;;10.85;5.22;;;;;;;24.05;12.47;100704.16;5106362;28;20108;-59
2022/04/27 06:52:46;;;;;;;;;;;;;;;23.87;12.72;100702.88;5058260;28;20036;-59
2022/04/27 06:55:31;;;;;;;17.73;6.22;;;;;;;23.79;12.77;100713.00;5094684;28;19926;-58
2022/04/27 06:58:27;;;;;;;12.35;4.95;;;;;;;23.61;13.22;100708.09;5087786;28;20393;-60
2022/04/27 07:01:13;;;;;;;11.32;5.20;;;;;;;23.54;14.15;100705.91;5104204;28;20044;-58
2022/04/27 07:03:42;;;;;;;14.02;6.07;;;;;;;23.18;14.79;100706.84;5096849;28;20493;-59
2022/04/27 07:06:10;;;;;;;11.63;5.82;;;;;;;23.00;16.14;100713.81;5095745;28;20059;-59
2022/04/27 07:08:37;;;;;;;13.52;6.20;;;;;;;22.89;15.34;100714.25;5090937;28;20116;-58
2022/04/27 07:11:04;;;;;;;15.57;5.93;;;;;;;22.56;17.29;100710.78;5109105;27;20011;-58
2022/04/27 07:13:31;;;;;;;12.00;5.43;;;;;;;22.14;19.02;100716.50;5106846;27;20115;-58
2022/04/27 07:16:00;;;;;;;13.38;6.15;;;;;;;21.86;18.54;100716.25;5106806;27;20042;-59
2022/04/27 07:18:29;;;;;;;12.43;4.97;;;;;;;21.62;20.54;100718.94;5108861;27;20396;-59
2022/04/27 07:20:57;;;;;;;9.93;5.50;;;;;;;21.49;20.22;100722.78;5114487;28;20023;-58
2022/04/27 07:23:24;;;;;;;9.35;5.30;;;;;;;21.42;19.74;100726.94;5114449;28;20024;-59
2022/04/27 07:25:51;;;;;;;8.15;5.00;;;;;;;21.32;18.31;100724.56;5115357;28;20380;-60
2022/04/27 07:28:17;;;;;;;11.73;5.43;;;;;;;21.49;18.02;100725.56;5115105;28;20495;-59
2022/04/27 07:30:44;;;;;;;18.50;5.32;;;;;;;21.70;17.72;100724.38;5115357;28;20066;-57
2022/04/27 07:33:11;;;;;;;9.82;5.70;;;;;;;21.67;18.57;100730.59;5114900;28;20069;-59
2022/04/27 07:35:38;;;;;;;11.93;6.18;;;;;;;21.53;17.95;100730.06;5115259;28;20031;-59
2022/04/27 07:38:06;;;;;;;15.10;6.00;;;;;;;21.26;18.88;100720.38;5115592;28;20027;-58
2022/04/27 07:40:33;;;;;;;12.30;5.60;;;;;;;20.99;18.80;100720.84;5114706;28;20024;-60
2022/04/27 07:43:00;;;;;;;11.65;6.15;;;;;;;20.84;19.19;100727.78;5114410;28;20031;-60
2022/04/27 07:45:28;;;;;;;14.40;5.82;;;;;;;20.77;19.85;100730.25;5115223;28;20028;-59
2022/04/27 07:47:55;;;;;;;10.60;5.18;;;;;;;20.55;20.48;100733.28;5115324;28;20106;-59
2022/04/27 07:50:22;;;;;;;20.70;6.18;;;;;;;20.31;20.85;100739.38;5115583;28;20043;-59
2022/04/27 07:52:49;;;;;;;15.98;5.75;;;;;;;20.19;20.52;100742.78;5115364;28;20114;-59
2022/04/27 07:55:15;;;;;;;15.18;5.78;;;;;;;20.10;20.39;100744.75;5115241;28;20036;-60
2022/04/27 07:57:42;;;;;;;13.93;6.25;;;;;;;20.09;20.10;100752.22;5114724;28;20059;-59
2022/04/27 08:00:13;;;;;;;18.05;6.82;;;;;;;20.05;20.05;100742.97;5115176;28;20031;-59
2022/04/27 08:02:41;;;;;;;18.98;6.60;;;;;;;20.14;20.48;100737.47;5115200;28;20401;-60
2022/04/27 08:05:09;;;;;;;13.73;6.18;;;;;;;20.02;20.70;100753.88;5114743;28;20043;-60
2022/04/27 08:07:37;;;;;;;13.57;6.22;;;;;;;19.95;20.68;100748.88;5115573;28;20039;-59
2022/04/27 08:10:10;;;;;;;11.77;6.78;;;;;;;19.95;20.87;100753.56;5114954;28;20032;-60
2022/04/27 08:12:39;;;;;;;13.13;7.50;;;;;;;19.88;21.01;100748.53;5115277;28;20379;-60
2022/04/27 08:15:07;;;;;;;22.85;7.28;;;;;;;19.74;21.39;100736.84;5115069;28;20024;-60
2022/04/27 08:17:34;;;;;;;18.02;6.72;;;;;;;19.83;20.19;100740.44;5115148;28;20035;-60
2022/04/27 08:22:46;;;;;;;15.13;6.45;;;;;;;19.86;19.90;100739.78;5115027;28;20027;-59
2022/04/27 08:25:13;;;;;;;22.90;7.07;;;;;;;19.83;19.58;100743.19;5115027;28;20058;-59
2022/04/27 08:27:40;;;;;;;15.27;6.32;;;;;;;19.72;20.46;100750.16;5096509;28;20035;-59
2022/04/27 08:30:07;;;;;;;13.43;6.47;;;;;;;19.61;20.10;100749.69;5114652;28;20031;-59
2022/04/27 08:32:35;;;;;;;18.23;7.57;;;;;;;19.66;20.25;100751.47;5114519;28;20382;-60
2022/04/27 08:35:01;;;;;;;19.15;7.60;;;;;;;19.58;21.82;100756.69;5079640;28;20106;-59
2022/04/27 08:37:29;;;;;;;21.55;9.30;;;;;;;19.56;20.33;100747.91;5114592;28;20027;-60
2022/04/27 08:39:55;;;;;;;20.05;8.00;;;;;;;19.47;20.33;100752.56;5114142;28;20071;-59
2022/04/27 08:42:22;;;;;;;21.15;7.82;;;;;;;19.55;19.51;100756.50;5114537;28;20082;-60
2022/04/27 08:44:49;;;;;;;15.45;7.07;;;;;;;19.53;20.37;100756.78;5114227;28;20024;-59
2022/04/27 08:47:16;;;;;;;15.38;7.30;;;;;;;19.53;19.95;100756.78;5114303;28;20074;-59
2022/04/27 08:49:43;;;;;;;22.35;7.43;;;;;;;19.66;18.71;100745.97;5113901;28;20591;-60
2022/04/27 08:52:12;;;;;;;19.40;7.13;;;;;;;19.65;19.40;100756.19;5114424;28;20032;-59
2022/04/27 08:54:40;;;;;;;15.27;7.75;;;;;;;19.58;19.09;100764.94;5114461;28;20059;-59
2022/04/27 08:57:07;;;;;;;20.52;8.23;;;;;;;20.04;18.79;100763.44;5113424;28;20028;-59
2022/04/27 08:59:34;;;;;;;32.35;11.70;;;;;;;20.15;20.99;100764.72;5114130;28;20043;-59
2022/04/27 09:02:30;;;;;;;32.30;12.98;;;;;;;19.98;20.64;100759.22;5113770;28;20035;-60
2022/04/27 09:05:13;;;;;;;41.45;11.98;;;;;;;19.73;22.43;100760.88;5105442;28;20048;-60
2022/04/27 09:07:51;;;;;;;33.90;11.25;;;;;;;19.64;23.48;100759.25;5114044;28;20088;-60
2022/04/27 09:10:21;;;;;;;31.48;11.38;;;;;;;19.49;23.29;100746.75;5113663;28;20492;-60
2022/04/27 09:12:52;;;;;;;34.55;11.88;;;;;;;19.27;25.32;100743.00;5113751;28;20027;-60
2022/04/27 09:15:21;;;;;;;41.42;11.82;;;;;;;19.17;24.71;100742.50;5113723;28;20084;-60
2022/04/27 09:20:54;;;;;;;37.58;10.52;;;;;;;19.00;25.05;100752.34;5113610;28;20039;-59
2022/04/27 09:23:39;;;;;;;30.90;9.88;;;;;;;19.25;24.98;100755.47;5113617;28;20080;-60
2022/04/27 09:26:28;;;;;;;23.23;10.00;;;;;;;19.36;25.25;100743.00;5095623;28;20481;-60
2022/04/27 09:28:54;;;;;;;30.15;10.15;;;;;;;19.26;25.94;100746.88;5113357;28;20377;-59
2022/04/27 09:31:32;;;;;;;31.17;9.75;;;;;;;19.29;26.98;100756.44;5112664;28;20403;-60
2022/04/27 09:37:12;;;;;;;22.40;8.43;;;;;;;19.12;27.45;100759.19;5113146;28;20036;-60
2022/04/27 09:39:39;;;;;;;33.58;8.80;;;;;;;18.90;28.24;100757.34;5113019;28;20031;-60
2022/04/27 09:42:08;;;;;;;23.42;9.95;;;;;;;19.14;28.51;100748.66;5113319;28;20100;-60
2022/04/27 09:44:37;;;;;;;34.67;10.45;;;;;;;19.25;28.09;100761.81;5113228;28;20027;-60
2022/04/27 09:47:06;;;;;;;32.88;10.50;;;;;;;19.25;28.22;100763.75;5096824;28;20493;-60
2022/04/27 09:49:37;;;;;;;28.92;10.35;;;;;;;19.19;28.88;100762.25;5113343;28;20023;-60
2022/04/27 09:52:05;;;;;;;28.10;10.90;;;;;;;19.31;28.31;100751.44;5112914;28;20034;-60
2022/04/27 09:54:36;;;;;;;31.38;10.85;;;;;;;19.10;29.09;100755.94;5113180;28;20047;-60
2022/04/27 09:57:05;;;;;;;26.38;10.80;;;;;;;19.24;28.99;100764.88;5100022;28;20034;-60
2022/04/27 09:59:35;;;;;;;30.38;10.40;;;;;;;18.97;29.36;100755.72;5113069;28;20022;-59
2022/04/27 10:02:10;;;;;;;34.83;10.77;;;;;;;18.73;29.62;100755.34;5112821;28;20039;-60
2022/04/27 10:04:39;;;;;;;25.38;9.23;;;;;;;18.64;30.01;100744.28;5109638;28;20031;-60
2022/04/27 10:07:09;;;;;;;31.05;10.02;;;;;;;18.75;29.79;100746.78;5112778;28;20038;-60
2022/04/27 10:09:35;;;;;;;34.70;10.48;;;;;;;18.75;29.91;100746.78;5112751;28;20024;-60
2022/04/27 10:12:06;;;;;;;23.75;9.63;;;;;;;18.52;30.03;100759.78;5112864;28;20122;-59
2022/04/27 10:14:33;;;;;;;25.17;9.95;;;;;;;18.38;30.49;100765.38;5113104;28;20062;-59
2022/04/27 10:17:00;;;;;;;28.70;9.32;;;;;;;18.45;29.89;100764.91;5099861;28;20457;-60
2022/04/27 10:19:26;;;;;;;25.05;9.82;;;;;;;18.51;29.73;100755.41;5107220;28;20098;-60
2022/04/27 10:21:56;;;;;;;26.88;9.73;;;;;;;18.27;29.76;100759.31;5112689;28;20122;-59
2022/04/27 10:24:37;;;;;;;27.48;9.00;;;;;;;18.06;29.99;100760.97;5112752;28;20028;-59
2022/04/27 10:27:26;;;;;;;20.38;9.30;;;;;;;17.92;31.32;100766.53;5096168;28;20485;-59
2022/04/27 10:29:59;;;;;;;27.33;9.55;;;;;;;17.75;31.59;100769.16;5112259;28;20044;-60
2022/04/27 10:32:44;;;;;;;25.75;10.13;;;;;;;17.65;31.26;100770.19;5112803;28;20036;-59
2022/04/27 10:35:21;;;;;;;27.83;9.57;;;;;;;17.56;31.69;100763.78;5097568;28;20047;-59
2022/04/27 10:37:54;;;;;;;22.60;10.10;;;;;;;17.49;31.86;100763.41;5112423;28;20043;-59
2022/04/27 10:40:37;;;;;;;25.63;10.23;;;;;;;17.44;32.22;100769.03;5111328;28;20031;-59
2022/04/27 10:43:07;;;;;;;20.90;9.63;;;;;;;17.44;31.93;100766.28;5097416;28;20028;-59
2022/04/27 10:45:35;;;;;;;18.65;9.00;;;;;;;17.40;33.01;100759.75;5116692;28;20359;-59
2022/04/27 10:48:06;;;;;;;18.50;8.82;;;;;;;17.30;32.79;100765.50;5109595;28;20032;-59
2022/04/27 10:50:34;;;;;;;24.52;9.32;;;;;;;17.14;34.19;100763.09;5112703;28;20131;-59
2022/04/27 10:53:40;;;;;;;30.40;10.07;;;;;;;17.15;34.90;100761.97;5099599;28;20028;-59
2022/04/27 10:56:24;;;;;;;23.63;9.00;;;;;;;17.08;34.50;100764.31;5033758;28;20495;-59
2022/04/27 10:58:52;;;;;;;30.23;10.90;;;;;;;17.06;34.57;100766.56;5033182;28;20045;-59
2022/04/27 11:01:30;;;;;;;39.00;10.35;;;;;;;17.00;33.59;100772.44;5084461;28;20473;-59
2022/04/27 11:03:59;;;;;;;28.35;9.63;;;;;;;16.94;33.51;100765.47;5116108;28;20040;-60
2022/04/27 11:06:26;;;;;;;37.40;10.18;;;;;;;16.92;34.37;100760.28;5116261;28;20047;-60
2022/04/27 11:09:24;;;;;;;23.90;9.90;;;;;;;16.87;34.91;100763.91;5116240;28;20035;-59
2022/04/27 11:11:52;;;;;;;26.35;11.55;;;;;;;16.83;33.39;100773.88;5115833;28;20043;-59
2022/04/27 11:14:34;;;;;;;28.80;12.05;;;;;;;16.88;33.57;100768.31;5116319;28;20063;-59
2022/04/27 11:17:01;;;;;;;26.50;13.02;;;;;;;16.80;33.30;100776.44;5097925;28;20035;-60
2022/04/27 11:19:38;;;;;;;36.13;13.60;;;;;;;16.79;34.16;100778.38;5115887;28;20107;-59
2022/04/27 11:22:15;;;;;;;25.17;13.07;;;;;;;16.80;33.75;100784.66;5115987;28;20077;-59
2022/04/27 11:24:46;;;;;;;30.20;13.90;;;;;;;16.71;34.25;100778.28;5115994;28;20382;-59
2022/04/27 11:27:13;;;;;;;32.03;15.10;;;;;;;16.75;34.11;100782.84;5116007;28;20031;-59
2022/04/27 11:29:41;;;;;;;39.35;16.85;;;;;;;16.91;33.58;100784.16;5115768;28;20492;-59
2022/04/27 11:32:09;;;;;;;22.73;13.75;;;;;;;17.11;33.08;100779.38;5115675;28;20138;-60
2022/04/27 11:34:36;;;;;;;23.77;13.20;;;;;;;17.02;33.25;100782.00;5115468;28;20027;-59
2022/04/27 11:37:20;;;;;;;23.85;11.98;;;;;;;17.07;33.36;100775.63;5115661;28;20038;-60
2022/04/27 11:39:48;;;;;;;29.25;12.43;;;;;;;17.26;33.04;100773.56;5115091;28;20114;-59
2022/04/27 11:42:16;;;;;;;33.80;12.25;;;;;;;17.14;33.32;100778.75;5115718;28;20042;-59
2022/04/27 11:44:50;;;;;;;26.58;11.40;;;;;;;16.91;33.90;100775.13;5115276;28;20043;-59
2022/04/27 11:47:33;;;;;;;25.80;11.93;;;;;;;17.14;33.10;100782.31;5115586;28;20035;-59
2022/04/27 11:50:03;;;;;;;25.30;11.43;;;;;;;17.05;33.29;100767.66;5114982;28;20045;-60
2022/04/27 11:52:39;;;;;;;18.58;10.90;;;;;;;17.16;33.12;100771.81;5115532;28;20035;-59
2022/04/27 11:55:12;;;;;;;29.33;11.65;;;;;;;17.14;33.26;100768.59;5098718;28;20092;-59
2022/04/27 11:57:40;;;;;;;26.83;11.48;;;;;;;16.97;33.35;100770.31;5115296;28;20385;-59
2022/04/27 12:00:09;;;;;;;28.52;11.65;;;;;;;16.77;33.86;100775.13;5115410;28;20120;-59
2022/04/27 12:02:43;;;;;;;32.90;12.43;;;;;;;16.71;34.57;100770.03;5115061;28;20080;-59
2022/04/27 12:05:10;;;;;;;22.08;11.73;;;;;;;16.65;34.32;100777.50;5097232;28;20035;-59